• Join FlightAware (Why Join?)
  • Login
  • US Flag 
10:00PM EDT


 

Airport Tracker/Info


-or-


 

Live Flight TrackerFlight Track Log ✈ N184RB ✈ 01-Aug-2013 ✈ KMCD - KJHW

Flight Track Log - Related Links

Times and Time Zones

All times are in EDT time to prevent confusion due to time zone crossing. See the N184RB flight status page for this flight to view local times or setup timezone preferences in your user account.

Time Position Orientation Groundspeed Altitude Reporting Facility
EDT Latitude Longitude Course Direction KTS MPH feet Rate Location/Type
11:53AM 45.6814 -84.4803 143° Southeast 184 212 8,000  Level Minneapolis Center
11:54AM 45.6406 -84.4364 143° Southeast 185 213 9,100 1,200 Climbing Minneapolis Center
11:55AM 45.5956 -84.3856 142° Southeast 194 223 10,500 1,200 Climbing Minneapolis Center
11:56AM 45.5539 -84.3389 142° Southeast 195 224 11,600 960 Climbing Minneapolis Center
11:57AM 45.5089 -84.2878 141° Southeast 195 224 12,600 960 Climbing Minneapolis Center
11:58AM 45.4636 -84.2333 140° Southeast 197 227 13,600 900 Climbing Minneapolis Center
11:59AM 45.4206 -84.1828 140° Southeast 203 234 14,500 840 Climbing Minneapolis Center
12:00PM 45.3747 -84.1278 140° Southeast 203 234 15,400 720 Climbing Minneapolis Center
12:01PM 45.3328 -84.0767 139° Southeast 202 232 16,100 720 Climbing Minneapolis Center
12:02PM 45.2869 -84.0189 138° Southeast 206 237 17,000 720 Climbing Minneapolis Center
12:03PM 45.2458 -83.9664 138° Southeast 204 235 17,600 660 Climbing Minneapolis Center
12:04PM 45.2039 -83.9028 133° Southeast 207 238 18,400 720 Climbing Minneapolis Center
12:06PM 45.1644 -83.8367 130° Southeast 205 236 19,100 540 Climbing Minneapolis Center
12:07PM 45.1261 -83.7747 131° Southeast 206 237 19,600 600 Climbing Minneapolis Center
12:08PM 45.0867 -83.7100 131° Southeast 212 244 20,400 660 Climbing Minneapolis Center
12:09PM 45.0475 -83.6453 131° Southeast 216 249 21,000 720 Climbing Minneapolis Center
12:10PM 45.0086 -83.5794 130° Southeast 218 251 21,900 660 Climbing Minneapolis Center
12:11PM 44.9669 -83.5131 132° Southeast 222 255 22,400 540 Climbing Minneapolis Center
12:12PM 44.9186 -83.4344 131° Southeast 222 255 23,100 540 Climbing Minneapolis Center
12:13PM 44.8772 -83.3667 131° Southeast 225 259 23,600 480 Climbing Minneapolis Center
12:14PM 44.8353 -83.3000 132° Southeast 227 261 24,100 480 Climbing Minneapolis Center
12:15PM 44.7961 -83.2342 130° Southeast 224 258 24,600 900 Climbing Minneapolis Center
12:16PM 44.7572 -83.1703 131° Southeast 219 252 26,000 1,080 Climbing Minneapolis Center
12:17PM 44.7186 -83.1075 131° Southeast 213 245 26,900 480 Climbing Minneapolis Center
12:18PM 44.6656 -83.0253 132° Southeast 227 261 27,000  Climbing Minneapolis Center
12:19PM 44.6192 -82.9497 131° Southeast 245 282 27,000 240 Level Minneapolis Center
12:20PM 44.5694 -82.8731 132° Southeast 260 299 27,600 480 Climbing Minneapolis Center
12:21PM 44.5250 -82.8000 130° Southeast 254 292 28,000 180 Climbing Minneapolis Center
12:22PM 44.4772 -82.7253 132° Southeast 254 292 28,000  Level Minneapolis Center
12:23PM 44.4275 -82.6456 131° Southeast 265 305 28,000  Level Minneapolis Center
12:24PM 44.3675 -82.5508 132° Southeast 271 312 28,000  Level Minneapolis Center
12:25PM 44.3172 -82.4708 131° Southeast 273 314 28,000 -60 Level Minneapolis Center
12:26PM 44.2500 -82.3833 137° Southeast 270 311 27,900 -360 Descending Toronto Center
12:27PM 44.2000 -82.3000 130° Southeast 280 322 27,400 -480 Descending Toronto Center
12:28PM 44.1500 -82.2167 130° Southeast 290 334 27,000 -240 Descending Toronto Center
12:29PM 44.0833 -82.1333 138° Southeast 280 322 27,000  Level Toronto Center
12:30PM 44.0333 -82.0667 136° Southeast 280 322 27,000  Level Toronto Center
12:31PM 44.0000 -81.9667 115° Southeast 280 322 27,000  Level Toronto Center
12:32PM 43.9500 -81.8833 130° Southeast 280 322 27,000  Level Toronto Center
12:33PM 43.9000 -81.8000 130° Southeast 280 322 27,000  Level Toronto Center
12:34PM 43.8500 -81.7333 136° Southeast 280 322 27,000  Level Toronto Center
12:35PM 43.8000 -81.6667 136° Southeast 280 322 27,000  Level Toronto Center
12:36PM 43.7500 -81.5667 125° Southeast 280 322 27,000  Level Toronto Center
12:37PM 43.7000 -81.5000 136° Southeast 280 322 27,000  Level Toronto Center
12:38PM 43.6500 -81.4333 136° Southeast 270 311 27,000  Level Toronto Center
12:39PM 43.5833 -81.3333 133° Southeast 270 311 27,000  Level Toronto Center
12:40PM 43.5333 -81.2667 136° Southeast 270 311 27,000 -240 Level Toronto Center
12:41PM 43.4833 -81.1667 125° Southeast 280 322 26,600 -480 Descending Toronto Center
12:42PM 43.4333 -81.1000 136° Southeast 280 322 26,100 -360 Descending Toronto Center
12:43PM 43.3833 -81.0333 136° Southeast 290 334 25,900 -600 Descending Toronto Center
12:44PM 43.3167 -80.9333 132° Southeast 290 334 24,900 -900 Descending Toronto Center
12:45PM 43.2667 -80.8667 136° Southeast 290 334 24,100 -480 Descending Toronto Center
12:46PM 43.2333 -80.7833 119° Southeast 260 299 24,000 -60 Descending Toronto Center
12:47PM 43.1833 -80.7000 129° Southeast 260 299 24,000  Level Toronto Center
12:48PM 43.1333 -80.6333 136° Southeast 260 299 24,000  Level Toronto Center
12:49PM 43.0833 -80.5667 136° Southeast 260 299 24,000  Level Toronto Center
12:50PM 43.0333 -80.5000 136° Southeast 260 299 24,000  Level Toronto Center
12:51PM 42.9833 -80.4333 136° Southeast 260 299 24,000 -480 Level Toronto Center
12:52PM 42.9333 -80.3667 136° Southeast 270 311 23,100 -1,020 Descending Toronto Center
12:53PM 42.8833 -80.2667 124° Southeast 280 322 22,000 -1,260 Descending Toronto Center
12:54PM 42.8306 -80.2208 148° Southeast 259 298 20,500 -1,440 Descending Cleveland Center
12:55PM 42.7803 -80.1503 134° Southeast 254 292 19,000 -1,500 Descending Cleveland Center
12:56PM 42.7322 -80.0828 134° Southeast 249 287 17,500 -1,560 Descending Cleveland Center
12:57PM 42.6839 -80.0128 133° Southeast 249 287 15,900 -1,560 Descending Cleveland Center
12:58PM 42.6419 -79.9425 129° Southeast 249 287 14,400 -1,500 Descending Cleveland Center
12:59PM 42.5936 -79.8808 137° Southeast 237 273 12,900 -1,500 Descending Cleveland Center
01:00PM 42.5411 -79.8167 138° Southeast 237 273 11,500 -1,200 Descending Cleveland Center
01:01PM 42.5094 -79.7581 126° Southeast 223 257 10,600 -720 Descending Cleveland Center
01:02PM 42.4694 -79.7050 136° Southeast 212 244 10,100 -600 Descending Cleveland Center
01:03PM 42.4294 -79.6550 137° Southeast 196 226 9,500 -600 Descending Cleveland Center
01:04PM 42.3872 -79.6050 139° Southeast 196 226 8,900 -720 Descending Cleveland Center
01:05PM 42.3617 -79.5492 122° Southeast 201 231 8,100 -540 Descending Cleveland Center
01:06PM 42.3383 -79.4822 115° Southeast 196 226 7,900 -240 Descending Cleveland Center
01:08PM 42.2637 -79.4124 133° Southeast  Level FlightAware Approximate
01:15PM 42.1500 -79.2500 133° Southeast  Level FlightAware Approximate
01:16PM 42.1534 -79.2580 133° Southeast  Level Estimated
01:17PM 42.1500 -79.2500 133° Southeast  Level FlightAware Approximate
01:18PM 42.1534 -79.2580 133° Southeast  Level Estimated
01:19PM 42.1500 -79.2500 133° Southeast  Level FlightAware Approximate